Latest Weather Observations for Wynyard

IDT60801

Issued at 2:32 am EST Sunday 23 July 2017 (issued every 30 minutes, with the page automatically refreshed every 10 minutes)

About weather observations | Map of weather stations | Latest weather observations for TAS | Other Formats
Station Details ID: 091107 Name: WYNYARD AIRPORT Lat: -41.00 Lon: 145.73 Height: 12.0 m
Data from the previous 72 hours. | See also: Recent months at Wynyard
Date/Time
EST
Temp
°C
App
Temp
°C
Dew
Point
°C
Rel
Hum
%
Delta-T
°C
Wind Press
QNH
hPa
Press
MSL
hPa
Rain since
9am
mm
Dir  Spd
km/h
Gust
km/h
Spd
kts
Gust
kts
23/02:30am 11.6 4.6 8.6 82 1.5 NW 35 50 19 27 1003.8 1003.9 3.8
23/02:00am 11.9 5.4 9.1 83 1.4 NW 33 46 18 25 1004.1 1004.2 3.8
23/01:44am 11.8 5.3 9.0 83 1.4 NW 33 54 18 29 1004.4 1004.5 3.8
23/01:30am 11.5 6.1 9.4 87 1.1 NW 28 43 15 23 1004.5 1004.6 3.8
23/01:18am 11.2 6.6 9.6 90 0.8 WNW 24 37 13 20 1004.7 1004.8 3.8
23/01:00am 11.2 6.6 9.6 90 0.8 WNW 24 46 13 25 1005.2 1005.3 3.2
23/12:56am 11.2 5.8 9.5 89 0.9 WNW 28 46 15 25 1005.4 1005.5 2.8
23/12:38am 11.9 5.4 9.1 83 1.4 NW 33 46 18 25 1005.2 1005.3 0.6
23/12:31am 12.1 5.8 8.8 80 1.6 NW 32 50 17 27 1005.2 1005.3 0.4
23/12:30am 12.1 5.6 8.8 80 1.6 NW 33 50 18 27 1005.2 1005.3 0.4
23/12:00am 12.6 6.5 8.3 75 2.1 NW 30 48 16 26 1005.3 1005.4 0.4
 
Date/Time
EST
Temp
°C
App
Temp
°C
Dew
Point
°C
Rel
Hum
%
Delta-T
°C
Wind Press
QNH
hPa
Press
MSL
hPa
Rain since
9am
mm
Dir  Spd
km/h
Gust
km/h
Spd
kts
Gust
kts
22/11:53pm 12.5 6.4 8.4 76 2.0 NW 30 48 16 26 1005.4 1005.5 0.4
22/11:30pm 12.6 6.2 8.5 76 2.0 NW 32 48 17 26 1005.8 1005.9 0.4
22/11:26pm 12.5 6.5 8.6 77 1.9 NW 30 48 16 26 1005.9 1006.0 0.4
22/11:00pm 12.7 6.7 8.8 77 2.0 NW 30 43 16 23 1006.2 1006.3 0.4
22/10:49pm 12.6 6.6 8.7 77 1.9 NW 30 48 16 26 1006.3 1006.4 0.4
22/10:30pm 12.6 7.5 9.2 80 1.7 NW 26 39 14 21 1006.6 1006.7 0.4
22/10:00pm 12.7 8.0 9.3 80 1.7 NW 24 33 13 18 1006.9 1007.0 0.4
22/09:30pm 12.7 7.5 9.0 78 1.9 NW 26 35 14 19 1007.3 1007.4 0.4
22/09:00pm 12.2 7.9 9.2 82 1.5 WNW 22 35 12 19 1007.6 1007.7 0.4
22/08:30pm 12.3 8.5 9.0 80 1.7 NW 19 28 10 15 1008.0 1008.1 0.4
22/08:00pm 12.3 8.3 9.0 80 1.7 NW 20 32 11 17 1008.2 1008.3 0.4
22/07:30pm 12.3 8.4 8.8 79 1.7 NW 19 24 10 13 1008.5 1008.6 0.4
22/07:00pm 12.3 7.8 8.6 78 1.8 NW 22 30 12 16 1008.6 1008.7 0.4
22/06:30pm 12.1 8.1 8.4 78 1.8 NW 19 26 10 14 1008.7 1008.8 0.4
22/06:00pm 12.1 8.0 8.6 79 1.7 NW 20 26 11 14 1008.8 1008.9 0.4
22/05:30pm 12.1 7.6 8.4 78 1.8 NW 22 30 12 16 1008.7 1008.8 0.4
22/05:00pm 12.3 8.1 8.2 76 2.0 NW 20 32 11 17 1008.7 1008.8 0.4
22/04:30pm 12.2 8.1 8.5 78 1.8 NW 20 30 11 16 1008.9 1009.0 0.4
22/04:00pm 12.2 7.6 8.3 77 1.9 NW 22 30 12 16 1009.3 1009.4 0.4
22/03:30pm 12.1 7.1 8.0 76 2.0 NW 24 35 13 19 1009.6 1009.7 0.4
22/03:00pm 12.4 6.6 7.9 74 2.2 NW 28 39 15 21 1009.8 1009.9 0.4
22/02:30pm 12.6 7.6 7.9 73 2.3 NW 24 35 13 19 1010.3 1010.4 0.4
22/02:00pm 13.0 8.0 8.1 72 2.4 NW 24 35 13 19 1010.7 1010.8 0.2
22/01:30pm 12.3 6.4 7.6 73 2.3 NW 28 39 15 21 1011.2 1011.3 0.2
22/01:00pm 11.9 7.6 8.0 77 1.9 NW 20 32 11 17 1012.0 1012.1 0.2
22/12:30pm 11.6 7.3 7.9 78 1.8 NW 20 32 11 17 1012.5 1012.6 0.2
22/12:00pm 11.8 7.6 8.1 78 1.8 NNW 20 30 11 16 1013.2 1013.3 0.2
22/11:30am 11.6 7.6 8.3 80 1.6 NNW 19 28 10 15 1013.7 1013.8 0.2
22/11:00am 11.8 7.9 8.6 81 1.6 NNW 19 32 10 17 1014.5 1014.6 0.2
22/10:30am 11.1 7.6 8.7 85 1.2 NNW 17 26 9 14 1015.0 1015.1 0.2
22/10:00am 8.7 7.0 8.4 98 0.1 W 7 11 4 6 1015.3 1015.4 0.2
22/09:30am 7.1 5.0 6.8 98 0.1 WSW 7 9 4 5 1015.8 1015.9 0.0
22/09:00am 6.3 4.6 6.0 98 0.1 SW 4 11 2 6 1015.6 1015.7 0.0
22/08:30am 5.0 3.4 4.7 98 0.1 SW 2 6 1 3 1015.5 1015.6 0.0
22/08:00am 4.4 1.8 4.1 98 0.1 WSW 7 11 4 6 1015.9 1016.0 0.0
22/07:30am 3.7 0.6 3.4 98 0.1 W 9 13 5 7 1016.0 1016.1 0.0
22/07:00am 2.5 -0.8 2.2 98 0.1 W 9 11 5 6 1015.9 1016.0 0.0
22/06:30am 2.2 -1.6 1.9 98 0.1 W 11 11 6 6 1016.0 1016.1 0.0
22/06:00am 2.4 -1.0 2.0 97 0.2 W 9 9 5 5 1016.3 1016.4 0.0
22/05:30am 3.2 0.0 2.9 98 0.1 WNW 9 11 5 6 1016.4 1016.5 0.0
22/05:00am 3.1 -0.1 2.8 98 0.1 WSW 9 11 5 6 1016.4 1016.5 0.0
22/04:30am 2.7 -0.3 2.3 97 0.2 W 7 9 4 5 1016.5 1016.6 0.0
22/04:00am 4.3 1.3 4.0 98 0.1 W 9 11 5 6 1016.8 1016.9 0.0
22/03:38am 4.3 1.3 4.0 98 0.1 WNW 9 15 5 8 1017.1 1017.1 0.0
22/03:30am 3.8 1.1 3.5 98 0.1 WNW 7 13 4 7 1017.2 1017.2 0.0
22/03:26am 3.8 1.1 3.5 98 0.1 W 7 9 4 5 1017.1 1017.1 0.0
22/03:06am 3.6 0.4 3.3 98 0.1 W 9 11 5 6 1017.5 1017.5 0.0
22/03:00am 3.5 0.3 3.1 97 0.2 W 9 11 5 6 1017.6 1017.6 0.0
22/02:55am 3.4 0.2 3.1 98 0.1 WSW 9 13 5 7 1017.7 1017.7 0.0
22/02:30am 3.9 0.8 3.6 98 0.1 W 9 11 5 6 1017.9 1017.9 0.0
22/02:27am 4.0 0.9 3.7 98 0.1 W 9 11 5 6 1017.9 1017.9 0.0
22/02:08am 3.3 0.1 2.9 97 0.2 WSW 9 11 5 6 1018.1 1018.1 0.0
22/02:00am 3.5 0.7 3.2 98 0.1 SW 7 11 4 6 1018.2 1018.2 0.0
22/01:30am 3.1 0.4 2.7 97 0.2 SW 6 9 3 5 1018.5 1018.5 0.0
22/01:25am 3.2 0.5 2.8 97 0.2 WSW 6 9 3 5 1018.6 1018.6 0.0
22/01:00am 3.2 0.5 2.8 97 0.2 WSW 6 7 3 4 1019.1 1019.1 0.0
22/12:30am 3.0 -0.3 2.6 97 0.2 W 9 11 5 6 1019.6 1019.6 0.0
22/12:00am 2.9 0.0 2.5 97 0.2 W 7 11 4 6 1020.0 1020.0 0.0
 
Date/Time
EST
Temp
°C
App
Temp
°C
Dew
Point
°C
Rel
Hum
%
Delta-T
°C
Wind Press
QNH
hPa
Press
MSL
hPa
Rain since
9am
mm
Dir  Spd
km/h
Gust
km/h
Spd
kts
Gust
kts
21/11:47pm 3.7 0.5 3.3 97 0.2 WNW 9 11 5 6 1020.2 1020.2 0.0
21/11:30pm 3.8 1.2 3.4 97 0.2 WSW 6 9 3 5 1020.4 1020.4 0.0
21/11:00pm 4.3 1.3 3.9 97 0.2 WNW 9 11 5 6 1020.6 1020.6 0.0
21/10:47pm 4.1 0.3 3.7 97 0.2 WNW 13 15 7 8 1020.7 1020.7 0.0
21/10:37pm 3.4 0.2 2.8 96 0.2 W 9 11 5 6 1020.5 1020.5 0.0
21/10:30pm 3.8 1.0 3.2 96 0.2 WNW 7 9 4 5 1020.5 1020.5 0.0
21/10:00pm 4.7 2.3 4.3 97 0.2 W 6 9 3 5 1020.8 1020.8 0.0
21/09:30pm 4.2 1.5 3.8 97 0.2 WNW 7 9 4 5 1021.0 1021.0 0.0
21/09:00pm 4.0 1.3 3.6 97 0.2 WNW 7 9 4 5 1020.8 1020.8 0.0
21/08:30pm 4.4 1.8 4.0 97 0.2 W 7 11 4 6 1020.8 1020.8 0.0
21/08:00pm 4.3 1.6 3.9 97 0.2 WSW 7 11 4 6 1020.9 1020.9 0.0
21/07:30pm 3.5 0.3 2.9 96 0.2 SW 9 13 5 7 1020.9 1020.9 0.0
21/07:24pm 3.5 0.3 2.9 96 0.2 SW 9 13 5 7 1021.0 1021.0 0.0
21/07:00pm 3.4 1.8 2.7 95 0.3 CALM 0 0 0 0 1020.8 1020.8 0.0
21/06:46pm 4.0 2.6 3.3 95 0.3 CALM 0 0 0 0 1020.9 1020.9 0.0
21/06:30pm 3.5 1.9 2.6 94 0.4 CALM 0 0 0 0 1020.9 1020.9 0.0
21/06:00pm 4.3 2.9 3.3 93 0.4 CALM 0 0 0 0 1020.8 1020.8 0.0
21/05:30pm 5.8 4.4 3.6 86 0.9 CALM 0 0 0 0 1020.7 1020.7 0.0
21/05:00pm 9.0 7.6 5.6 79 1.5 WNW 2 7 1 4 1020.8 1020.8 0.0
21/04:30pm 10.1 7.1 6.1 76 1.9 NNW 11 15 6 8 1021.2 1021.2 0.0
21/04:00pm 10.7 7.4 6.5 75 2.0 NNW 13 17 7 9 1021.1 1021.1 0.0
21/03:30pm 10.9 7.6 6.3 73 2.2 NNW 13 17 7 9 1021.1 1021.1 0.0
21/03:00pm 10.8 7.5 6.4 74 2.1 NNE 13 17 7 9 1020.9 1020.9 0.0
21/02:30pm 11.2 7.5 6.5 73 2.2 NNE 15 19 8 10 1021.2 1021.2 0.0
21/02:00pm 10.6 6.8 6.0 73 2.1 NNE 15 19 8 10 1021.3 1021.3 0.0
21/01:30pm 10.8 7.0 6.0 72 2.2 NE 15 17 8 9 1021.3 1021.3 0.0
21/01:00pm 11.0 8.0 6.0 71 2.3 NE 11 17 6 9 1021.8 1021.8 0.0
21/12:30pm 10.6 7.8 5.2 69 2.5 NNE 9 13 5 7 1022.4 1022.4 0.0
21/12:00pm 11.2 8.1 5.7 69 2.5 WNW 11 17 6 9 1022.8 1022.8 0.0
21/11:30am 10.8 8.5 4.7 66 2.8 NW 6 9 3 5 1023.3 1023.3 0.0
21/11:00am 9.9 7.7 5.3 73 2.1 NW 6 7 3 4 1023.6 1023.6 0.0
21/10:30am 7.9 5.0 4.7 80 1.4 WNW 9 11 5 6 1023.7 1023.7 0.0
21/10:00am 6.2 2.8 3.9 85 1.0 WNW 11 13 6 7 1023.7 1023.7 0.0
21/09:30am 4.3 0.3 2.8 90 0.6 WNW 13 15 7 8 1023.7 1023.7 0.0
21/09:00am 2.9 -1.2 2.2 95 0.3 WNW 13 15 7 8 1023.6 1023.6 0.0
21/08:30am 1.4 -3.3 0.8 96 0.2 WNW 15 17 8 9 1023.3 1023.3 0.0
21/08:00am -0.1 -4.7 -0.7 96 0.2 WNW 13 13 7 7 1023.1 1023.1 0.0
21/07:30am 0.1 -4.8 -0.3 97 0.1 WNW 15 17 8 9 1023.0 1023.0 0.0
21/07:00am -0.8 -5.4 -1.2 97 0.1 WNW 13 15 7 8 1022.8 1022.8 0.0
21/06:30am -1.6 -5.6 -2.2 96 0.1 WNW 9 11 5 6 1022.6 1022.6 0.0
21/06:00am -1.1 -5.4 -1.7 96 0.2 WNW 11 13 6 7 1022.5 1022.5 0.0
21/05:30am 0.6 -3.8 0.2 97 0.1 WNW 13 15 7 8 1022.2 1022.2 0.0
21/05:00am -0.2 -4.0 -0.6 97 0.1 WNW 9 11 5 6 1022.1 1022.1 0.0
21/04:30am 0.0 -4.2 -0.6 96 0.2 WNW 11 13 6 7 1021.9 1021.9 0.0
21/04:00am -0.1 -3.9 -0.7 96 0.2 W 9 11 5 6 1021.8 1021.8 0.0
21/03:30am 0.1 -4.1 -0.6 95 0.3 W 11 13 6 7 1021.7 1021.7 0.0
21/03:00am 0.2 -3.6 -0.6 94 0.3 WNW 9 13 5 7 1021.5 1021.5 0.0
21/02:30am 2.3 -1.9 1.4 94 0.3 WNW 13 15 7 8 1021.5 1021.5 0.0
21/02:00am 2.5 -1.7 1.8 95 0.3 WNW 13 17 7 9 1021.4 1021.4 0.0
21/01:30am 2.8 -1.4 1.8 93 0.4 WNW 13 17 7 9 1021.2 1021.2 0.0
21/01:00am 3.6 -0.2 1.8 88 0.7 WNW 11 15 6 8 1021.2 1021.2 0.0
21/12:30am 5.0 1.8 2.9 86 0.9 S 9 13 5 7 1021.2 1021.2 0.0
21/12:00am 3.5 -0.3 1.7 88 0.7 WNW 11 13 6 7 1021.3 1021.3 0.0
 
Date/Time
EST
Temp
°C
App
Temp
°C
Dew
Point
°C
Rel
Hum
%
Delta-T
°C
Wind Press
QNH
hPa
Press
MSL
hPa
Rain since
9am
mm
Dir  Spd
km/h
Gust
km/h
Spd
kts
Gust
kts
20/11:30pm 3.8 -0.4 1.7 86 0.8 W 13 17 7 9 1021.5 1021.5 0.0
20/11:00pm 5.9 2.8 3.4 84 1.0 SW 9 17 5 9 1021.1 1021.1 0.0
20/10:30pm 5.5 2.2 2.5 81 1.2 W 9 13 5 7 1021.3 1021.3 0.0
20/10:00pm 6.2 3.7 3.5 83 1.1 WSW 6 13 3 7 1021.1 1021.1 0.0
20/09:30pm 6.1 2.9 3.3 82 1.2 SW 9 15 5 8 1020.9 1020.9 0.0
20/09:00pm 6.1 2.2 3.4 83 1.1 SSW 13 20 7 11 1020.7 1020.7 0.0
20/08:30pm 5.4 2.2 2.8 83 1.1 SW 9 15 5 8 1020.7 1020.7 0.0
20/08:00pm 5.1 1.9 2.8 85 0.9 WNW 9 13 5 7 1020.3 1020.3 0.0
20/07:30pm 3.7 -0.4 2.4 91 0.5 WSW 13 17 7 9 1020.1 1020.1 0.0
20/07:00pm 4.2 0.5 2.4 88 0.7 WSW 11 17 6 9 1019.6 1019.6 0.0
20/06:30pm 4.5 1.2 2.2 85 0.9 WSW 9 13 5 7 1019.0 1019.0 0.0
20/06:00pm 7.2 3.9 2.5 72 1.9 WSW 9 11 5 6 1018.3 1018.3 0.0
20/05:30pm 7.8 3.5 3.1 72 2.0 SSW 15 24 8 13 1017.5 1017.5 0.0
20/05:00pm 8.7 4.7 3.1 68 2.4 SW 13 19 7 10 1017.4 1017.4 0.0
20/04:30pm 9.9 6.0 3.6 65 2.7 SSW 13 19 7 10 1016.6 1016.7 0.0
20/04:00pm 10.4 5.3 3.0 60 3.2 S 19 30 10 16 1016.0 1016.1 0.0
20/03:30pm 10.9 6.3 3.7 61 3.2 SSW 17 24 9 13 1015.5 1015.6 0.0
20/03:00pm 10.8 5.1 3.1 59 3.3 SSW 22 37 12 20 1015.0 1015.1 0.0
20/02:30pm 10.7 3.9 3.3 60 3.2 SSW 28 43 15 23 1014.6 1014.7 0.0
20/02:00pm 10.5 4.1 3.1 60 3.2 SSW 26 39 14 21 1014.1 1014.2 0.0
20/01:35pm 10.6 3.8 3.2 60 3.2 SSW 28 48 15 26 1013.8 1013.9 0.0
20/01:30pm 10.2 4.1 2.8 60 3.2 SSW 24 48 13 26 1013.8 1013.9 0.0
20/01:02pm 10.0 2.4 2.6 60 3.2 SSW 32 50 17 27 1013.4 1013.5 0.0
20/01:00pm 9.9 2.0 2.5 60 3.1 SSW 33 50 18 27 1013.3 1013.4 0.0
20/12:41pm 9.8 2.9 2.4 60 3.1 SSW 28 46 15 25 1013.1 1013.2 0.0
20/12:30pm 9.7 2.8 2.6 61 3.0 SSW 28 44 15 24 1012.9 1013.0 0.0
20/12:03pm 9.2 0.9 2.1 61 3.0 SSW 35 56 19 30 1012.6 1012.7 0.0
20/12:00pm 9.2 1.0 2.5 63 2.8 SSW 35 50 19 27 1012.4 1012.5 0.0
20/11:31am 8.5 0.2 2.3 65 2.6 SW 35 56 19 30 1012.6 1012.7 0.0
20/11:30am 8.7 0.9 2.7 66 2.5 SW 33 50 18 27 1012.5 1012.6 0.0
20/11:04am 8.2 0.0 2.7 68 2.3 SW 35 54 19 29 1012.2 1012.3 0.0
20/11:00am 8.1 0.3 3.0 70 2.2 SW 33 48 18 26 1012.1 1012.2 0.0
20/10:30am 7.2 -1.3 2.9 74 1.8 SW 37 50 20 27 1012.1 1012.2 0.0
20/10:06am 6.8 -0.7 3.6 80 1.4 SW 32 50 17 27 1011.8 1011.9 0.0
20/10:00am 6.4 -2.1 3.0 79 1.4 SW 37 54 20 29 1011.8 1011.9 0.0
20/09:30am 6.4 -2.2 2.7 77 1.5 SW 37 56 20 30 1011.6 1011.7 0.0
20/09:28am 6.4 -2.1 2.9 78 1.5 WSW 37 56 20 30 1011.7 1011.8 0.0
20/09:00am 5.6 -3.0 2.8 82 1.2 WSW 37 50 20 27 1011.2 1011.3 3.4
20/08:30am 5.3 0.1 3.3 87 0.8 WSW 20 37 11 20 1011.6 1011.7 3.4
20/08:00am 3.8 0.1 2.2 89 0.6 WSW 11 15 6 8 1011.5 1011.6 3.4
20/07:30am 5.1 -1.0 2.6 84 1.0 SW 24 33 13 18 1010.8 1010.9 3.0
20/07:00am 4.4 -0.8 2.3 86 0.8 WSW 19 24 10 13 1010.3 1010.4 2.8
20/06:30am 3.8 -1.1 2.3 90 0.6 W 17 20 9 11 1009.9 1010.0 2.8
20/06:00am 3.8 -1.1 2.3 90 0.6 W 17 19 9 10 1010.0 1010.1 2.6
20/05:30am 4.5 -0.3 2.8 89 0.7 WSW 17 24 9 13 1009.3 1009.4 2.4
20/05:00am 4.0 -0.1 2.4 89 0.6 WSW 13 17 7 9 1009.2 1009.3 2.4
20/04:30am 4.5 -1.3 2.4 86 0.8 W 22 28 12 15 1008.8 1008.9 2.4
20/04:00am 5.3 0.3 3.5 88 0.8 W 19 30 10 16 1009.1 1009.2 2.4
20/03:30am 5.1 -0.2 2.8 85 0.9 WSW 20 32 11 17 1008.9 1009.0 2.0
20/03:00am 5.3 -0.7 3.2 86 0.9 WSW 24 37 13 20 1008.7 1008.8 2.0

Other Formats:

Comma delimited format used in spreadsheet applications
http://www.bom.gov.au/fwo/IDT60801/IDT60801.95957.axf

JavaScript Object Notation format (JSON) in row-major order
http://www.bom.gov.au/fwo/IDT60801/IDT60801.95957.json